Time;durP1;ratioP1;P1;durP2;ratioP2;P2;SDS_P1;SDS_P2;PMS_P1;PMS_P2;Temp;Humidity;BMP_temperature;BMP_pressure;BME280_temperature;BME280_humidity;BME280_pressure;Samples;Min_cycle;Max_cycle;Signal;HPM_P1;HPM_P2
2022/03/01 00:02:12;;;;;;;28.05;13.40;;;5.90;99.90;;;;;;5041427;28;20453;-64
2022/03/01 00:04:38;;;;;;;28.70;12.48;;;5.90;99.90;;;;;;5043139;28;20025;-63
2022/03/01 00:07:04;;;;;;;27.42;12.07;;;5.90;99.90;;;;;;5036326;28;20079;-64
2022/03/01 00:09:30;;;;;;;23.70;11.27;;;6.00;99.90;;;;;;5035318;28;20033;-68
2022/03/01 00:11:56;;;;;;;26.05;12.27;;;6.00;99.90;;;;;;5037985;28;20456;-67
2022/03/01 00:14:21;;;;;;;25.08;12.65;;;5.90;99.90;;;;;;5044360;28;20035;-68
2022/03/01 00:16:47;;;;;;;26.45;11.52;;;6.00;99.90;;;;;;5038926;28;20148;-64
2022/03/01 00:19:13;;;;;;;27.70;12.88;;;6.00;99.90;;;;;;5043953;28;20064;-66
2022/03/01 00:21:38;;;;;;;27.33;11.90;;;6.00;99.90;;;;;;5045178;28;20041;-64
2022/03/01 00:24:04;;;;;;;26.42;13.70;;;6.00;99.90;;;;;;5046536;28;20069;-64
2022/03/01 00:26:30;;;;;;;25.60;12.50;;;6.00;99.90;;;;;;5027933;28;20496;-67
2022/03/01 00:28:55;;;;;;;26.45;12.93;;;6.00;99.90;;;;;;5046257;28;20059;-65
2022/03/01 00:31:21;;;;;;;28.40;12.38;;;6.00;99.90;;;;;;5042237;28;20089;-67
2022/03/01 00:33:47;;;;;;;24.55;11.18;;;6.10;99.90;;;;;;5049136;28;20458;-66
2022/03/01 00:36:12;;;;;;;27.85;12.85;;;6.10;99.90;;;;;;5040341;28;20059;-65
2022/03/01 00:38:38;;;;;;;28.48;12.15;;;6.20;99.90;;;;;;5041975;28;20080;-65
2022/03/01 00:41:04;;;;;;;28.50;12.80;;;6.20;99.90;;;;;;5025364;28;20026;-68
2022/03/01 00:43:29;;;;;;;28.73;13.73;;;6.20;99.90;;;;;;5026616;28;20026;-64
2022/03/01 00:45:55;;;;;;;26.33;12.10;;;6.20;99.90;;;;;;5030132;28;20107;-67
2022/03/01 00:48:21;;;;;;;25.63;13.27;;;6.20;99.90;;;;;;5015601;28;20060;-65
2022/03/01 00:50:47;;;;;;;27.02;12.35;;;6.20;99.90;;;;;;5026676;28;20059;-67
2022/03/01 00:53:13;;;;;;;29.10;13.07;;;6.20;99.90;;;;;;5028722;28;20047;-65
2022/03/01 00:55:38;;;;;;;28.63;12.93;;;6.20;99.90;;;;;;5031838;28;20037;-65
2022/03/01 00:58:04;;;;;;;28.48;13.10;;;6.20;99.90;;;;;;5028474;28;20046;-65
2022/03/01 01:00:31;;;;;;;28.77;13.93;;;6.20;99.90;;;;;;5026729;28;20504;-67
2022/03/01 01:02:57;;;;;;;26.92;13.30;;;6.20;99.90;;;;;;5029708;28;20041;-66
2022/03/01 01:05:23;;;;;;;27.50;12.88;;;6.20;99.90;;;;;;5032500;28;20036;-67
2022/03/01 01:07:49;;;;;;;27.40;13.43;;;6.30;99.90;;;;;;5031333;28;20117;-67
2022/03/01 01:10:15;;;;;;;26.23;12.55;;;6.30;99.90;;;;;;5021792;28;20033;-67
2022/03/01 01:12:42;;;;;;;25.05;12.32;;;6.30;99.90;;;;;;5032920;28;20025;-65
2022/03/01 01:15:09;;;;;;;27.80;13.02;;;6.30;99.90;;;;;;5029698;28;20041;-66
2022/03/01 01:17:35;;;;;;;28.30;13.02;;;6.30;99.90;;;;;;5017972;28;20045;-66
2022/03/01 01:20:01;;;;;;;29.33;13.68;;;6.30;99.90;;;;;;5010409;28;20045;-66
2022/03/01 01:22:42;;;;;;;29.65;14.10;;;6.30;99.90;;;;;;5011492;28;20881;-63
2022/03/01 01:25:09;;;;;;;27.98;13.30;;;6.30;99.90;;;;;;5011027;28;20450;-65
2022/03/01 01:27:36;;;;;;;26.08;13.38;;;6.30;99.90;;;;;;5014730;28;20109;-67
2022/03/01 01:30:04;;;;;;;29.17;13.52;;;6.30;99.90;;;;;;5015348;28;20041;-67
2022/03/01 01:32:31;;;;;;;29.45;14.27;;;6.20;99.90;;;;;;5017714;28;20033;-68
2022/03/01 01:34:57;;;;;;;28.88;13.65;;;6.20;99.90;;;;;;5020624;28;20108;-64
2022/03/01 01:37:22;;;;;;;29.15;14.98;;;6.20;99.90;;;;;;5023171;28;20989;-64
2022/03/01 01:39:48;;;;;;;28.27;13.82;;;6.20;99.90;;;;;;5027709;28;20057;-68
2022/03/01 01:42:14;;;;;;;29.77;12.77;;;6.20;99.90;;;;;;5023694;28;20493;-66
2022/03/01 01:44:43;;;;;;;30.75;13.18;;;6.10;99.90;;;;;;5023390;28;20128;-67
2022/03/01 01:47:08;;;;;;;29.48;13.45;;;6.10;99.90;;;;;;5024146;28;20753;-65
2022/03/01 01:49:34;;;;;;;26.80;14.05;;;6.20;99.90;;;;;;5023907;28;20053;-68
2022/03/01 01:52:00;;;;;;;30.95;14.15;;;6.20;99.90;;;;;;5023356;28;20099;-65
2022/03/01 01:54:25;;;;;;;28.35;13.60;;;6.20;99.90;;;;;;5031795;28;20060;-64
2022/03/01 01:56:51;;;;;;;27.35;14.55;;;6.20;99.90;;;;;;5035239;28;20033;-65
2022/03/01 01:59:16;;;;;;;30.65;14.40;;;6.20;99.90;;;;;;5035010;28;20039;-66
2022/03/01 02:01:42;;;;;;;27.65;13.18;;;6.20;99.90;;;;;;5035136;28;20072;-68
2022/03/01 02:04:08;;;;;;;27.50;12.95;;;6.20;99.90;;;;;;5035771;28;20412;-68
2022/03/01 02:06:48;;;;;;;26.48;12.80;;;6.10;99.90;;;;;;5035756;28;20033;-64
2022/03/01 02:09:13;;;;;;;28.45;13.48;;;6.10;99.90;;;;;;5036774;28;20437;-64
2022/03/01 02:11:39;;;;;;;30.02;14.23;;;6.10;99.90;;;;;;5034152;28;20113;-65
2022/03/01 02:14:05;;;;;;;30.73;14.23;;;6.10;99.90;;;;;;5036082;28;20466;-67
2022/03/01 02:16:30;;;;;;;29.40;13.57;;;6.00;99.90;;;;;;5035593;28;20653;-64
2022/03/01 02:18:56;;;;;;;29.02;13.93;;;6.00;99.90;;;;;;5035045;28;20436;-65
2022/03/01 02:21:22;;;;;;;30.60;13.75;;;6.00;99.90;;;;;;5035042;28;20057;-64
2022/03/01 02:23:47;;;;;;;30.30;13.10;;;6.00;99.90;;;;;;5034046;28;20393;-66
2022/03/01 02:26:13;;;;;;;26.77;12.68;;;5.90;99.90;;;;;;5034908;28;20466;-67
2022/03/01 02:28:38;;;;;;;26.55;12.65;;;5.90;99.90;;;;;;5034170;28;20029;-65
2022/03/01 02:31:04;;;;;;;28.05;14.85;;;6.00;99.90;;;;;;5032178;28;20033;-65
2022/03/01 02:33:29;;;;;;;29.10;13.65;;;5.90;99.90;;;;;;5019454;28;20029;-66
2022/03/01 02:35:55;;;;;;;28.75;13.75;;;5.90;99.90;;;;;;5036433;28;20029;-65
2022/03/01 02:38:21;;;;;;;28.05;12.85;;;5.90;99.90;;;;;;5032852;28;20037;-65
2022/03/01 02:40:46;;;;;;;29.45;13.13;;;5.90;99.90;;;;;;5032396;28;20025;-65
2022/03/01 02:43:12;;;;;;;30.33;13.90;;;5.90;99.90;;;;;;5035122;28;20519;-65
2022/03/01 02:45:38;;;;;;;27.10;13.93;;;5.90;99.90;;;;;;5035089;28;20029;-65
2022/03/01 02:48:03;;;;;;;28.05;14.02;;;5.90;99.90;;;;;;5034777;28;20354;-65
2022/03/01 02:50:29;;;;;;;26.45;13.60;;;5.80;99.90;;;;;;5033920;28;20056;-65
2022/03/01 02:52:55;;;;;;;28.30;13.30;;;5.80;99.90;;;;;;5029041;28;20021;-67
2022/03/01 02:55:20;;;;;;;28.42;14.02;;;5.80;99.90;;;;;;5034160;28;20393;-66
2022/03/01 02:57:46;;;;;;;30.35;14.07;;;5.70;99.90;;;;;;5034329;28;20037;-67
2022/03/01 03:00:12;;;;;;;27.90;14.05;;;5.60;99.90;;;;;;5043274;28;20029;-64
2022/03/01 03:02:38;;;;;;;29.52;14.50;;;5.60;99.90;;;;;;5047139;28;20614;-64
2022/03/01 03:05:06;;;;;;;28.50;13.27;;;5.60;99.90;;;;;;5037021;28;20473;-67
2022/03/01 03:07:31;;;;;;;28.75;13.32;;;5.60;99.90;;;;;;5034798;28;20032;-65
2022/03/01 03:09:57;;;;;;;29.15;13.27;;;5.70;99.90;;;;;;5037141;28;20033;-66
2022/03/01 03:12:23;;;;;;;30.05;14.57;;;5.70;99.90;;;;;;5034286;28;20041;-64
2022/03/01 03:14:48;;;;;;;25.35;13.13;;;5.70;99.90;;;;;;5043758;28;20033;-67
2022/03/01 03:17:14;;;;;;;28.38;13.73;;;5.70;99.90;;;;;;5037263;28;20034;-64
2022/03/01 03:19:39;;;;;;;27.25;12.57;;;5.80;99.90;;;;;;5043074;28;20025;-64
2022/03/01 03:22:05;;;;;;;29.05;14.85;;;5.90;99.90;;;;;;5038117;28;20378;-64
2022/03/01 03:24:32;;;;;;;28.25;13.95;;;5.90;99.90;;;;;;5046492;28;20119;-64
2022/03/01 03:26:57;;;;;;;29.73;13.27;;;6.00;99.90;;;;;;5038511;28;20021;-65
2022/03/01 03:29:23;;;;;;;25.83;12.55;;;6.10;99.90;;;;;;5040338;28;20142;-65
2022/03/01 03:31:49;;;;;;;26.67;13.35;;;6.10;99.90;;;;;;5031228;28;20025;-65
2022/03/01 03:34:15;;;;;;;29.77;13.38;;;6.10;99.90;;;;;;5035582;28;20105;-64
2022/03/01 03:36:42;;;;;;;26.40;13.68;;;6.10;99.90;;;;;;5034077;28;20104;-65
2022/03/01 03:39:10;;;;;;;26.60;12.63;;;6.10;99.90;;;;;;5037366;28;20488;-63
2022/03/01 03:41:36;;;;;;;26.65;13.30;;;6.10;99.90;;;;;;5035981;28;20025;-66
2022/03/01 03:44:02;;;;;;;27.50;13.25;;;6.10;99.90;;;;;;5041851;28;20032;-66
2022/03/01 03:46:28;;;;;;;26.60;13.35;;;6.10;99.90;;;;;;5046678;28;20030;-64
2022/03/01 03:48:53;;;;;;;29.38;14.15;;;6.20;99.90;;;;;;5039408;28;20046;-64
2022/03/01 03:51:19;;;;;;;24.30;12.82;;;6.20;99.90;;;;;;5044792;28;20067;-66
2022/03/01 03:53:46;;;;;;;29.65;14.60;;;6.20;99.90;;;;;;5042426;28;20021;-65
2022/03/01 03:56:12;;;;;;;27.23;13.88;;;6.20;99.90;;;;;;5045843;28;20028;-65
2022/03/01 03:58:37;;;;;;;27.33;13.23;;;6.20;99.90;;;;;;5039548;28;20037;-68
2022/03/01 04:01:03;;;;;;;27.13;13.10;;;6.20;99.90;;;;;;5042562;28;20029;-65
2022/03/01 04:03:29;;;;;;;27.65;13.80;;;6.20;99.90;;;;;;5048671;28;20110;-66
2022/03/01 04:05:55;;;;;;;28.27;13.85;;;6.20;99.90;;;;;;5033298;28;20458;-64
2022/03/01 04:08:21;;;;;;;26.38;13.57;;;6.20;99.90;;;;;;5033352;28;20029;-65
2022/03/01 04:10:46;;;;;;;27.77;13.73;;;6.20;99.90;;;;;;5033398;28;20048;-64
2022/03/01 04:13:12;;;;;;;25.73;13.35;;;6.20;99.90;;;;;;5033603;28;20108;-66
2022/03/01 04:15:38;;;;;;;28.75;12.88;;;6.30;99.90;;;;;;5032888;28;20359;-65
2022/03/01 04:18:04;;;;;;;26.65;12.82;;;6.30;99.90;;;;;;5032641;28;20034;-66
2022/03/01 04:20:30;;;;;;;28.02;14.00;;;6.30;99.90;;;;;;5033770;28;20527;-66
2022/03/01 04:22:56;;;;;;;26.85;12.85;;;6.30;99.90;;;;;;5032468;28;20469;-66
2022/03/01 04:25:22;;;;;;;28.27;13.10;;;6.40;99.90;;;;;;5033152;28;20022;-65
2022/03/01 04:27:48;;;;;;;27.40;12.55;;;6.40;99.90;;;;;;5040470;28;20473;-66
2022/03/01 04:30:15;;;;;;;29.10;13.63;;;6.50;99.90;;;;;;5033212;28;20113;-64
2022/03/01 04:32:41;;;;;;;27.42;13.07;;;6.50;99.90;;;;;;5033368;28;20033;-65
2022/03/01 04:35:09;;;;;;;29.50;13.30;;;6.50;99.90;;;;;;5033119;28;20029;-64
2022/03/01 04:37:36;;;;;;;24.45;12.75;;;6.50;99.90;;;;;;5032390;28;20397;-67
2022/03/01 04:40:04;;;;;;;27.33;13.18;;;6.50;99.90;;;;;;5032496;28;20056;-67
2022/03/01 04:42:29;;;;;;;29.08;13.45;;;6.60;99.90;;;;;;5032635;28;20060;-65
2022/03/01 04:44:55;;;;;;;29.23;13.45;;;6.60;99.90;;;;;;5033543;28;20060;-65
2022/03/01 04:47:20;;;;;;;24.92;13.50;;;6.60;99.90;;;;;;5035913;28;20060;-67
2022/03/01 04:49:46;;;;;;;25.23;13.07;;;6.70;99.90;;;;;;5035630;28;20025;-64
2022/03/01 04:52:12;;;;;;;25.27;12.95;;;6.70;99.90;;;;;;5032366;28;20072;-64
2022/03/01 04:54:37;;;;;;;27.55;13.68;;;6.70;99.90;;;;;;5030973;28;20029;-66
2022/03/01 04:57:03;;;;;;;27.00;12.77;;;6.80;99.90;;;;;;5032500;28;20055;-65
2022/03/01 04:59:29;;;;;;;26.02;13.23;;;6.80;99.90;;;;;;5032313;28;20036;-66
2022/03/01 05:01:54;;;;;;;30.75;13.75;;;6.80;99.90;;;;;;5031350;28;20068;-64
2022/03/01 05:04:21;;;;;;;26.45;12.88;;;6.80;99.90;;;;;;5030027;28;20037;-65
2022/03/01 05:06:47;;;;;;;28.85;13.02;;;6.90;99.90;;;;;;5029896;28;20397;-65
2022/03/01 05:09:13;;;;;;;25.70;13.35;;;6.90;99.90;;;;;;5033650;28;20079;-64
2022/03/01 05:11:39;;;;;;;28.33;12.75;;;7.00;99.90;;;;;;5034376;28;20029;-64
2022/03/01 05:14:05;;;;;;;26.85;12.88;;;7.00;99.90;;;;;;5042928;28;20396;-66
2022/03/01 05:16:30;;;;;;;25.08;12.85;;;7.00;99.90;;;;;;5032451;28;20461;-64
2022/03/01 05:18:56;;;;;;;26.30;13.45;;;7.00;99.90;;;;;;5032234;28;20052;-64
2022/03/01 05:21:21;;;;;;;29.80;13.80;;;7.10;99.90;;;;;;5043472;28;20400;-68
2022/03/01 05:23:47;;;;;;;29.20;11.75;;;7.10;99.90;;;;;;5044861;28;20101;-67
2022/03/01 05:26:14;;;;;;;26.25;13.38;;;7.10;99.90;;;;;;5042103;28;20040;-67
2022/03/01 05:28:39;;;;;;;28.23;12.18;;;7.20;99.90;;;;;;5032237;28;20142;-66
2022/03/01 05:31:05;;;;;;;24.48;12.13;;;7.20;99.90;;;;;;5039470;28;20061;-67
2022/03/01 05:33:31;;;;;;;24.85;12.80;;;7.20;99.90;;;;;;5034558;28;20175;-67
2022/03/01 05:35:57;;;;;;;26.90;13.40;;;7.20;99.90;;;;;;5033666;28;20131;-67
2022/03/01 05:38:23;;;;;;;22.95;12.18;;;7.30;99.90;;;;;;5033321;28;20045;-67
2022/03/01 05:40:48;;;;;;;23.67;10.85;;;7.30;99.90;;;;;;5033934;28;20117;-64
2022/03/01 05:43:14;;;;;;;24.45;12.40;;;7.30;99.90;;;;;;5034672;28;20044;-64
2022/03/01 05:45:41;;;;;;;24.23;12.18;;;7.30;99.90;;;;;;5037275;28;20033;-65
2022/03/01 05:48:07;;;;;;;27.52;12.73;;;7.30;99.90;;;;;;5039389;28;20030;-67
2022/03/01 05:50:33;;;;;;;23.77;12.68;;;7.30;99.90;;;;;;5041523;28;20044;-67
2022/03/01 05:52:58;;;;;;;26.40;13.07;;;7.40;99.90;;;;;;5038029;28;20109;-64
2022/03/01 05:55:24;;;;;;;25.88;12.50;;;7.40;99.90;;;;;;5037584;28;20069;-65
2022/03/01 05:57:49;;;;;;;27.98;12.60;;;7.40;99.90;;;;;;5046669;28;20049;-67
2022/03/01 06:00:17;;;;;;;26.08;11.75;;;7.30;99.90;;;;;;5030591;28;20055;-65
2022/03/01 06:02:45;;;;;;;25.70;12.43;;;7.30;99.90;;;;;;5031403;28;20034;-65
2022/03/01 06:05:11;;;;;;;24.23;12.43;;;7.30;99.90;;;;;;5045270;28;20021;-66
2022/03/01 06:07:37;;;;;;;24.88;12.02;;;7.40;99.90;;;;;;5040373;28;20045;-66
2022/03/01 06:10:03;;;;;;;24.20;11.82;;;7.40;99.90;;;;;;5035719;28;20567;-68
2022/03/01 06:12:28;;;;;;;26.38;12.63;;;7.40;99.90;;;;;;5033456;28;20108;-67
2022/03/01 06:14:54;;;;;;;26.83;14.00;;;7.40;99.90;;;;;;5034450;28;20029;-67
2022/03/01 06:17:19;;;;;;;26.85;12.90;;;7.40;99.90;;;;;;5031914;28;20037;-66
2022/03/01 06:19:45;;;;;;;28.60;13.43;;;7.50;99.90;;;;;;5033721;28;20040;-65
2022/03/01 06:22:11;;;;;;;27.77;13.23;;;7.50;99.90;;;;;;5031997;28;20394;-64
2022/03/01 06:24:41;;;;;;;28.63;12.80;;;7.50;99.90;;;;;;5032098;28;20382;-65
2022/03/01 06:27:06;;;;;;;26.70;12.50;;;7.50;99.90;;;;;;5019489;28;20676;-67
2022/03/01 06:29:32;;;;;;;26.35;12.40;;;7.60;99.90;;;;;;5029229;28;20033;-64
2022/03/01 06:31:58;;;;;;;26.63;13.77;;;7.60;99.90;;;;;;5035445;28;20025;-65
2022/03/01 06:34:24;;;;;;;26.65;12.88;;;7.60;99.90;;;;;;5034156;28;20532;-67
2022/03/01 06:36:49;;;;;;;32.58;13.68;;;7.60;99.90;;;;;;5039501;28;20025;-63
2022/03/01 06:39:15;;;;;;;26.30;13.85;;;7.60;99.90;;;;;;5046888;28;20043;-65
2022/03/01 06:41:40;;;;;;;26.17;12.80;;;7.60;99.90;;;;;;5037814;28;20021;-68
2022/03/01 06:44:06;;;;;;;28.20;13.18;;;7.60;99.90;;;;;;5048828;28;20485;-67
2022/03/01 06:46:32;;;;;;;23.25;11.02;;;7.60;99.90;;;;;;5044843;28;20066;-64
2022/03/01 06:48:58;;;;;;;24.15;11.85;;;7.60;99.90;;;;;;5040520;28;20033;-68
2022/03/01 06:51:24;;;;;;;25.27;12.52;;;7.60;99.90;;;;;;5035022;28;20461;-67
2022/03/01 06:53:50;;;;;;;28.17;12.85;;;7.60;99.90;;;;;;5043343;28;20029;-64
2022/03/01 06:56:16;;;;;;;26.23;13.10;;;7.60;99.90;;;;;;5042237;28;20032;-68
2022/03/01 06:58:41;;;;;;;25.67;12.45;;;7.70;99.90;;;;;;5042465;28;20060;-65
2022/03/01 07:01:07;;;;;;;27.45;13.85;;;7.70;99.90;;;;;;5041179;28;20450;-65
2022/03/01 07:03:34;;;;;;;27.77;13.30;;;7.70;99.90;;;;;;5043587;28;20033;-65
2022/03/01 07:06:00;;;;;;;28.13;13.27;;;7.70;99.90;;;;;;5048675;28;20022;-65
2022/03/01 07:08:26;;;;;;;26.88;13.18;;;7.70;99.90;;;;;;5034728;28;20044;-67
2022/03/01 07:10:52;;;;;;;28.92;12.23;;;7.80;99.90;;;;;;5034350;28;20112;-65
2022/03/01 07:13:18;;;;;;;25.42;12.88;;;7.80;99.90;;;;;;5034408;28;20445;-66
2022/03/01 07:15:43;;;;;;;24.15;12.05;;;7.80;99.90;;;;;;5033832;28;20026;-66
2022/03/01 07:18:09;;;;;;;25.95;12.70;;;7.80;99.90;;;;;;5034722;28;20414;-65
2022/03/01 07:20:35;;;;;;;24.63;12.88;;;7.80;99.90;;;;;;5034428;28;20381;-66
2022/03/01 07:23:01;;;;;;;27.88;13.20;;;7.80;99.90;;;;;;5034091;28;20488;-65
2022/03/01 07:25:27;;;;;;;26.13;12.35;;;7.70;99.90;;;;;;5033829;28;20439;-66
2022/03/01 07:27:54;;;;;;;27.88;12.68;;;7.70;99.90;;;;;;5034795;28;20100;-66
2022/03/01 07:30:21;;;;;;;25.05;12.38;;;7.70;99.90;;;;;;5033299;28;20059;-65
2022/03/01 07:32:48;;;;;;;27.15;12.88;;;7.70;99.90;;;;;;5034222;28;20040;-66
2022/03/01 07:35:15;;;;;;;26.80;12.93;;;7.60;99.90;;;;;;5034372;28;20040;-64
2022/03/01 07:37:41;;;;;;;25.42;12.63;;;7.60;99.90;;;;;;5033932;28;20103;-66
2022/03/01 07:40:12;;;;;;;25.48;12.18;;;7.60;99.90;;;;;;5033851;28;20774;-66
2022/03/01 07:42:38;;;;;;;41.47;15.45;;;7.60;99.90;;;;;;5033431;28;20057;-63
2022/03/01 07:45:05;;;;;;;28.30;14.10;;;7.60;99.90;;;;;;5033886;28;20088;-64
2022/03/01 07:47:31;;;;;;;27.45;13.07;;;7.60;99.90;;;;;;5033934;28;20033;-65
2022/03/01 07:49:57;;;;;;;28.33;12.13;;;7.60;99.90;;;;;;5033030;28;20101;-67
2022/03/01 07:52:23;;;;;;;28.77;13.82;;;7.50;99.90;;;;;;5031035;28;20492;-64
2022/03/01 07:54:48;;;;;;;25.00;12.88;;;7.40;99.90;;;;;;5044442;28;20025;-64
2022/03/01 07:57:16;;;;;;;21.83;11.55;;;7.30;99.90;;;;;;5032894;28;20025;-66
2022/03/01 07:59:41;;;;;;;25.65;12.50;;;7.30;99.90;;;;;;5033476;28;20464;-64
2022/03/01 08:02:08;;;;;;;26.50;13.43;;;7.20;99.90;;;;;;5033943;28;20088;-67
2022/03/01 08:04:33;;;;;;;26.00;12.30;;;7.20;99.90;;;;;;5033763;28;20042;-64
2022/03/01 08:06:59;;;;;;;26.85;13.00;;;7.20;99.90;;;;;;5033179;28;20083;-64
2022/03/01 08:09:25;;;;;;;27.67;12.88;;;7.20;99.90;;;;;;5031201;28;20032;-65
2022/03/01 08:11:51;;;;;;;25.95;12.55;;;7.20;99.90;;;;;;5033001;28;20033;-65
2022/03/01 08:14:16;;;;;;;26.27;12.95;;;7.20;99.90;;;;;;5032372;28;20026;-65
2022/03/01 08:16:42;;;;;;;25.55;12.80;;;7.10;99.90;;;;;;5031729;28;20044;-65
2022/03/01 08:19:08;;;;;;;25.30;12.90;;;7.10;99.90;;;;;;5031285;28;20076;-66
2022/03/01 08:21:34;;;;;;;26.83;12.07;;;7.10;99.90;;;;;;5032678;28;20034;-66
2022/03/01 08:23:59;;;;;;;23.38;12.00;;;7.10;99.90;;;;;;5033053;28;20090;-68
2022/03/01 08:26:25;;;;;;;26.02;12.40;;;7.10;99.90;;;;;;5036341;28;20099;-65
2022/03/01 08:28:51;;;;;;;25.52;13.75;;;7.10;99.90;;;;;;5037225;28;20033;-65
2022/03/01 08:31:17;;;;;;;26.73;12.68;;;7.20;99.90;;;;;;5033326;28;20059;-65
2022/03/01 08:33:43;;;;;;;25.10;13.43;;;7.20;99.90;;;;;;5032850;28;20117;-65
2022/03/01 08:36:09;;;;;;;26.25;12.43;;;7.30;99.90;;;;;;5032933;28;20025;-64
2022/03/01 08:38:36;;;;;;;24.05;12.63;;;7.30;99.90;;;;;;5026674;28;20068;-66
2022/03/01 08:41:02;;;;;;;25.38;12.05;;;7.40;99.90;;;;;;5030600;28;20030;-64
2022/03/01 08:43:28;;;;;;;24.20;11.77;;;7.40;99.90;;;;;;5032793;28;20037;-64
2022/03/01 08:45:54;;;;;;;25.42;12.00;;;7.50;99.90;;;;;;5025199;28;20030;-65
2022/03/01 08:48:20;;;;;;;28.55;12.68;;;7.50;99.90;;;;;;5021009;28;20041;-66
2022/03/01 08:50:46;;;;;;;29.85;13.43;;;7.50;99.90;;;;;;5032296;28;20462;-64
2022/03/01 08:53:12;;;;;;;28.55;13.10;;;7.40;99.90;;;;;;5032831;28;20759;-66
2022/03/01 08:55:38;;;;;;;27.25;12.98;;;7.40;99.90;;;;;;5032718;28;20029;-64
2022/03/01 08:58:03;;;;;;;26.98;13.55;;;7.20;99.90;;;;;;5031328;28;20049;-65
2022/03/01 09:00:29;;;;;;;28.50;14.10;;;7.10;99.90;;;;;;5032066;28;20040;-65
2022/03/01 09:02:55;;;;;;;26.13;13.23;;;7.00;99.90;;;;;;5031598;28;20072;-65
2022/03/01 09:05:21;;;;;;;24.98;13.05;;;7.00;99.90;;;;;;5030615;28;20063;-65
2022/03/01 09:07:47;;;;;;;28.98;14.25;;;7.00;99.90;;;;;;5033144;28;20421;-66
2022/03/01 09:10:12;;;;;;;27.02;13.57;;;6.90;99.90;;;;;;5031007;28;20406;-66
2022/03/01 09:12:38;;;;;;;30.48;12.85;;;6.90;99.90;;;;;;5031012;28;20034;-66
2022/03/01 09:15:05;;;;;;;27.17;13.93;;;7.00;99.90;;;;;;5031000;28;20502;-65
2022/03/01 09:17:30;;;;;;;27.80;12.73;;;7.00;99.90;;;;;;5031287;28;20045;-66
2022/03/01 09:19:56;;;;;;;28.23;14.75;;;6.90;99.90;;;;;;5031788;28;20365;-66
2022/03/01 09:22:21;;;;;;;27.67;13.13;;;7.00;99.90;;;;;;5030788;28;20396;-65
2022/03/01 09:24:47;;;;;;;26.13;14.10;;;7.10;99.90;;;;;;5031205;28;20056;-65
2022/03/01 09:27:13;;;;;;;28.40;13.73;;;7.10;99.90;;;;;;5030329;28;20072;-66
2022/03/01 09:29:40;;;;;;;26.00;13.18;;;7.20;99.90;;;;;;5029318;28;20030;-65
2022/03/01 09:32:05;;;;;;;27.58;14.63;;;7.20;99.90;;;;;;5030931;28;20022;-65
2022/03/01 09:34:31;;;;;;;26.67;13.35;;;7.20;99.90;;;;;;5030512;28;20041;-67
2022/03/01 09:36:57;;;;;;;27.30;13.93;;;7.30;99.90;;;;;;5030754;28;20388;-66
2022/03/01 09:39:23;;;;;;;28.98;13.80;;;7.30;99.90;;;;;;5029911;28;20142;-65
2022/03/01 09:41:50;;;;;;;28.00;13.77;;;7.30;99.90;;;;;;5029540;28;20108;-65
2022/03/01 09:44:17;;;;;;;27.10;13.70;;;7.30;99.90;;;;;;5045072;28;20037;-67
2022/03/01 09:46:43;;;;;;;30.40;14.75;;;7.20;99.90;;;;;;5033107;28;20035;-65
2022/03/01 09:49:09;;;;;;;28.55;13.65;;;7.20;99.90;;;;;;5040955;28;20036;-66
2022/03/01 09:51:39;;;;;;;25.60;13.32;;;7.10;99.90;;;;;;5033222;28;20048;-66
2022/03/01 09:54:05;;;;;;;29.27;14.20;;;7.00;99.90;;;;;;5029386;28;20493;-67
2022/03/01 09:56:31;;;;;;;26.45;14.10;;;7.00;99.90;;;;;;5033487;28;20033;-66
2022/03/01 09:58:57;;;;;;;28.60;14.55;;;6.90;99.90;;;;;;5052002;28;20362;-66
2022/03/01 10:01:24;;;;;;;30.75;14.75;;;6.80;99.90;;;;;;5035074;28;20021;-66
2022/03/01 10:03:51;;;;;;;31.55;15.77;;;6.80;99.90;;;;;;5029260;28;20562;-67
2022/03/01 10:06:21;;;;;;;29.83;14.95;;;6.80;99.90;;;;;;5037272;28;20022;-67
2022/03/01 10:08:53;;;;;;;32.92;15.57;;;6.80;99.90;;;;;;5032345;28;20104;-66
2022/03/01 10:11:19;;;;;;;;;;;6.70;99.90;;;;;;5037058;28;20035;-66
2022/03/01 10:13:44;;;;;;;28.45;13.43;;;6.70;99.90;;;;;;5032170;28;19913;-67
2022/03/01 10:16:14;;;;;;;30.33;15.90;;;6.70;99.90;;;;;;5040384;28;20051;-68
2022/03/01 10:18:42;;;;;;;33.15;15.93;;;6.80;99.90;;;;;;5035600;28;20113;-67
2022/03/01 10:21:10;;;;;;;33.40;15.48;;;6.90;99.90;;;;;;5036226;28;20405;-67
2022/03/01 10:23:38;;;;;;;32.42;15.10;;;6.90;99.90;;;;;;5035469;28;20045;-67
2022/03/01 10:26:12;;;;;;;29.05;15.50;;;7.00;99.90;;;;;;5034855;28;20079;-67
2022/03/01 10:28:39;;;;;;;30.40;15.00;;;7.00;99.90;;;;;;5036009;28;20056;-67
2022/03/01 10:31:13;;;;;;;29.98;14.43;;;7.10;99.90;;;;;;5035474;28;20025;-66
2022/03/01 10:33:51;;;;;;;31.95;15.55;;;7.00;99.90;;;;;;5035387;28;20477;-68
2022/03/01 10:36:21;;;;;;;30.40;16.17;;;7.10;99.90;;;;;;5034933;28;20033;-67
2022/03/01 10:39:03;;;;;;;29.55;15.20;;;7.10;99.90;;;;;;5051358;28;20037;-67
2022/03/01 10:41:32;;;;;;;33.03;16.50;;;7.30;99.90;;;;;;5027266;28;20034;-68
2022/03/01 10:43:59;;;;;;;32.92;14.90;;;7.40;99.90;;;;;;5032250;28;20053;-67
2022/03/01 10:46:26;;;;;;;29.95;15.80;;;7.50;99.90;;;;;;5036601;28;20125;-68
2022/03/01 10:49:02;;;;;;;26.20;14.43;;;7.50;99.90;;;;;;5027606;28;20439;-68
2022/03/01 10:51:28;;;;;;;31.27;16.02;;;7.50;99.90;;;;;;5030527;28;20060;-68
2022/03/01 10:53:57;;;;;;;29.55;14.30;;;7.60;99.90;;;;;;5033933;28;20385;-67
2022/03/01 10:56:34;;;;;;;29.48;15.95;;;7.50;99.90;;;;;;5051147;28;20032;-68
2022/03/01 10:59:01;;;;;;;26.75;14.50;;;7.60;99.90;;;;;;5048285;28;20072;-68
2022/03/01 11:01:27;;;;;;;31.02;14.75;;;7.60;99.90;;;;;;5035191;28;20036;-68
2022/03/01 11:03:53;;;;;;;30.65;16.08;;;7.70;99.90;;;;;;5031148;28;20021;-67
2022/03/01 11:06:19;;;;;;;30.05;15.80;;;7.70;99.90;;;;;;5033531;28;20030;-67
2022/03/01 11:08:45;;;;;;;45.45;16.05;;;7.70;99.90;;;;;;5015514;28;20034;-68
2022/03/01 11:11:15;;;;;;;30.73;16.08;;;7.70;99.90;;;;;;5034041;28;20052;-68
2022/03/01 11:13:44;;;;;;;31.70;14.60;;;7.80;99.90;;;;;;5031552;28;20099;-68
2022/03/01 11:16:37;;;;;;;29.05;15.70;;;7.80;99.90;;;;;;5031218;28;20075;-67
2022/03/01 11:19:44;;;;;;;27.98;15.50;;;7.90;99.90;;;;;;5015719;28;20037;-67
2022/03/01 11:22:41;;;;;;;31.77;15.27;;;7.90;99.90;;;;;;5030076;28;20072;-68
2022/03/01 11:25:23;;;;;;;32.35;15.90;;;8.00;99.90;;;;;;5025556;28;20048;-67
2022/03/01 11:27:51;;;;;;;30.65;15.32;;;8.00;99.90;;;;;;5034416;28;20447;-67
2022/03/01 11:30:24;;;;;;;30.23;16.10;;;7.90;99.90;;;;;;5046969;28;20047;-66
2022/03/01 11:32:54;;;;;;;31.00;15.02;;;7.90;99.90;;;;;;5017718;28;20064;-68
2022/03/01 11:35:23;;;;;;;30.92;16.38;;;8.00;99.90;;;;;;5026564;28;20059;-67
2022/03/01 11:38:02;;;;;;;30.30;16.50;;;8.00;99.90;;;;;;5024964;28;20039;-67
2022/03/01 11:40:31;;;;;;;31.10;15.15;;;8.00;99.90;;;;;;5035112;28;20037;-66
2022/03/01 11:43:16;;;;;;;33.47;15.70;;;8.10;99.90;;;;;;5034304;28;20029;-67
2022/03/01 11:45:47;;;;;;;30.98;14.85;;;8.10;99.90;;;;;;5034370;28;20469;-67
2022/03/01 11:48:20;;;;;;;29.05;16.08;;;8.30;99.90;;;;;;5034319;28;20109;-67
2022/03/01 11:50:48;;;;;;;28.98;15.20;;;8.30;99.90;;;;;;5033697;28;20057;-67
2022/03/01 11:53:16;;;;;;;28.77;15.40;;;8.30;99.90;;;;;;5024719;28;20026;-68
2022/03/01 11:55:51;;;;;;;30.17;15.68;;;8.40;99.90;;;;;;5040842;28;20036;-69
2022/03/01 11:58:18;;;;;;;29.75;15.68;;;8.40;99.90;;;;;;5026241;28;20049;-67
2022/03/01 12:00:43;;;;;;;29.95;15.32;;;8.40;99.90;;;;;;5031706;28;20101;-67
2022/03/01 12:03:17;;;;;;;31.70;15.30;;;8.40;99.90;;;;;;5023738;28;20113;-67
2022/03/01 12:05:47;;;;;;;26.60;15.40;;;8.40;99.90;;;;;;5033365;28;20425;-68
2022/03/01 12:08:15;;;;;;;30.00;15.20;;;8.40;99.90;;;;;;5033110;28;20049;-67
2022/03/01 12:10:53;;;;;;;29.38;15.63;;;8.40;99.90;;;;;;5018844;28;20041;-67
2022/03/01 12:13:19;;;;;;;29.95;15.25;;;8.40;99.90;;;;;;5032422;28;20473;-68
2022/03/01 12:15:55;;;;;;;27.85;14.57;;;8.40;99.90;;;;;;5020452;28;20080;-68
2022/03/01 12:18:27;;;;;;;33.45;15.93;;;8.40;99.90;;;;;;5023846;28;20132;-66
2022/03/01 12:20:53;;;;;;;30.45;16.33;;;8.40;99.90;;;;;;5033820;28;20108;-67
2022/03/01 12:23:30;;;;;;;32.33;15.63;;;8.40;99.90;;;;;;5033120;28;20128;-66
2022/03/01 12:25:58;;;;;;;31.70;15.85;;;8.30;99.90;;;;;;5030642;28;20034;-67
2022/03/01 12:28:25;;;;;;;28.48;14.88;;;8.30;99.90;;;;;;5031030;28;20041;-66
2022/03/01 12:30:50;;;;;;;30.52;15.48;;;8.30;99.90;;;;;;5013654;28;20040;-66
2022/03/01 12:33:18;;;;;;;29.98;15.57;;;8.40;99.90;;;;;;5014076;28;20381;-67
2022/03/01 12:35:55;;;;;;;32.88;15.55;;;8.40;99.90;;;;;;5013386;28;20021;-67
2022/03/01 12:38:20;;;;;;;29.30;15.43;;;8.50;99.90;;;;;;5023172;28;20128;-66